Time;durP1;ratioP1;P1;durP2;ratioP2;P2;SDS_P1;SDS_P2;PMS_P1;PMS_P2;Temp;Humidity;BMP_temperature;BMP_pressure;BME280_temperature;BME280_humidity;BME280_pressure;Samples;Min_cycle;Max_cycle;Signal;HPM_P1;HPM_P2
2021/03/02 00:01:41;;;;;;;31.58;29.15;;;4.20;88.00;;;;;;5095053;28;20294;-78
2021/03/02 00:04:08;;;;;;;30.65;28.42;;;4.20;85.50;;;;;;5094611;28;20207;-77
2021/03/02 00:06:37;;;;;;;30.58;28.00;;;4.20;83.00;;;;;;5094542;28;20223;-77
2021/03/02 00:09:03;;;;;;;31.30;29.08;;;4.10;81.80;;;;;;5094681;28;20217;-78
2021/03/02 00:11:30;;;;;;;32.20;29.98;;;4.10;80.80;;;;;;5095478;28;20195;-79
2021/03/02 00:13:57;;;;;;;30.30;27.80;;;4.10;80.00;;;;;;5095478;28;20196;-78
2021/03/02 00:16:26;;;;;;;30.23;27.90;;;4.00;83.70;;;;;;5094464;28;20718;-79
2021/03/02 00:18:56;;;;;;;31.13;28.63;;;4.00;82.90;;;;;;5094581;28;20716;-79
2021/03/02 00:21:28;;;;;;;29.63;27.48;;;3.90;81.50;;;;;;5094830;28;20195;-78
2021/03/02 00:24:02;;;;;;;30.48;28.13;;;3.90;83.10;;;;;;5094573;28;20195;-79
2021/03/02 00:26:32;;;;;;;30.80;28.38;;;3.90;82.20;;;;;;5094507;28;20272;-78
2021/03/02 00:29:02;;;;;;;30.63;28.45;;;4.00;80.90;;;;;;5094733;28;20211;-79
2021/03/02 00:31:31;;;;;;;29.77;27.58;;;4.00;80.20;;;;;;5094538;28;20717;-78
2021/03/02 00:33:57;;;;;;;32.35;29.85;;;3.90;79.80;;;;;;5094887;28;20657;-79
2021/03/02 00:36:24;;;;;;;30.33;28.13;;;3.90;79.80;;;;;;5096326;28;20202;-78
2021/03/02 00:38:50;;;;;;;30.60;28.45;;;3.90;80.10;;;;;;5105483;28;20215;-79
2021/03/02 00:41:17;;;;;;;31.23;28.77;;;3.80;83.10;;;;;;5103226;28;20199;-78
2021/03/02 00:43:44;;;;;;;31.02;28.50;;;3.90;82.20;;;;;;5094439;28;20196;-79
2021/03/02 00:46:10;;;;;;;31.00;28.70;;;3.80;82.00;;;;;;5094235;28;20272;-79
2021/03/02 00:48:37;;;;;;;28.80;26.70;;;3.80;83.00;;;;;;5094234;28;20215;-78
2021/03/02 00:51:04;;;;;;;30.77;28.20;;;3.80;85.00;;;;;;5094038;28;20210;-79
2021/03/02 00:53:30;;;;;;;29.55;27.40;;;3.80;83.60;;;;;;5094137;28;20195;-78
2021/03/02 00:55:56;;;;;;;30.13;27.58;;;3.90;81.60;;;;;;5093862;28;20191;-79
2021/03/02 00:58:23;;;;;;;31.38;28.85;;;3.80;80.60;;;;;;5093866;28;20689;-79
2021/03/02 01:00:50;;;;;;;31.58;29.00;;;3.80;80.10;;;;;;5093948;28;20725;-79
2021/03/02 01:03:16;;;;;;;31.98;29.20;;;3.70;80.10;;;;;;5093794;28;20207;-79
2021/03/02 01:05:42;;;;;;;30.70;27.95;;;3.70;80.30;;;;;;5093509;28;20215;-79
2021/03/02 01:08:09;;;;;;;33.03;30.58;;;3.60;80.40;;;;;;5093507;28;20562;-79
2021/03/02 01:10:35;;;;;;;30.52;28.33;;;3.60;80.60;;;;;;5093650;28;20577;-79
2021/03/02 01:13:02;;;;;;;30.42;28.13;;;3.50;80.80;;;;;;5093544;28;20195;-78
2021/03/02 01:15:29;;;;;;;29.60;27.40;;;3.40;81.00;;;;;;5093452;28;20222;-78
2021/03/02 01:17:56;;;;;;;31.40;29.05;;;3.30;81.40;;;;;;5093558;28;20601;-79
2021/03/02 01:20:22;;;;;;;29.60;27.50;;;3.30;81.80;;;;;;5093351;28;20686;-79
2021/03/02 01:22:49;;;;;;;30.65;28.40;;;3.20;81.90;;;;;;5093534;28;20216;-78
2021/03/02 01:25:16;;;;;;;28.27;26.27;;;3.20;82.20;;;;;;5093357;28;20640;-79
2021/03/02 01:27:42;;;;;;;29.13;26.92;;;3.20;82.60;;;;;;5093065;28;20249;-78
2021/03/02 01:30:11;;;;;;;30.10;27.90;;;3.30;83.30;;;;;;5093571;28;20197;-79
2021/03/02 01:32:39;;;;;;;29.63;27.15;;;3.30;82.80;;;;;;5093512;28;20663;-79
2021/03/02 01:35:07;;;;;;;29.92;27.55;;;3.30;82.20;;;;;;5093661;28;20199;-79
2021/03/02 01:37:34;;;;;;;30.77;28.25;;;3.30;82.10;;;;;;5093891;28;20542;-79
2021/03/02 01:40:00;;;;;;;30.17;27.73;;;3.30;81.90;;;;;;5093850;28;20216;-79
2021/03/02 01:42:26;;;;;;;29.52;27.50;;;3.20;83.10;;;;;;5093414;28;20191;-78
2021/03/02 01:44:53;;;;;;;31.23;28.58;;;3.10;82.70;;;;;;5093558;28;20259;-79
2021/03/02 01:47:19;;;;;;;30.05;27.67;;;3.10;83.30;;;;;;5093059;28;20286;-77
2021/03/02 01:49:46;;;;;;;30.65;28.35;;;3.10;84.40;;;;;;5092717;28;20306;-76
2021/03/02 01:52:13;;;;;;;30.52;28.23;;;3.10;83.50;;;;;;5092870;28;20260;-77
2021/03/02 01:54:39;;;;;;;31.40;29.10;;;3.10;82.90;;;;;;5092358;28;20201;-77
2021/03/02 01:57:06;;;;;;;30.90;28.50;;;3.00;82.80;;;;;;5092631;28;20740;-76
2021/03/02 01:59:32;;;;;;;29.75;27.60;;;3.00;83.10;;;;;;5092685;28;20298;-76
2021/03/02 02:02:02;;;;;;;30.38;28.08;;;3.00;83.10;;;;;;5092647;28;20191;-77
2021/03/02 02:04:35;;;;;;;30.20;28.00;;;3.00;82.80;;;;;;5092539;28;20199;-76
2021/03/02 02:07:07;;;;;;;30.23;27.77;;;3.00;83.00;;;;;;5092359;28;20310;-76
2021/03/02 02:09:41;;;;;;;30.92;28.55;;;3.00;83.50;;;;;;5093163;28;20211;-77
2021/03/02 02:12:14;;;;;;;29.48;27.27;;;3.00;85.40;;;;;;5092633;28;20195;-77
2021/03/02 02:14:44;;;;;;;30.10;27.67;;;3.00;83.80;;;;;;5092610;28;20207;-76
2021/03/02 02:17:17;;;;;;;29.65;27.40;;;3.00;83.40;;;;;;5092244;28;20199;-77
2021/03/02 02:19:47;;;;;;;39.90;28.90;;;3.00;83.10;;;;;;5092533;28;20349;-76
2021/03/02 02:22:56;;;;;;;29.80;27.65;;;2.90;85.20;;;;;;5092591;28;20198;-77
2021/03/02 02:25:32;;;;;;;29.67;27.20;;;2.90;85.40;;;;;;5092555;28;20679;-76
2021/03/02 02:28:02;;;;;;;29.50;27.10;;;2.90;85.40;;;;;;5092335;28;20229;-77
2021/03/02 02:30:30;;;;;;;29.77;27.58;;;2.80;84.90;;;;;;5092471;28;20252;-76
2021/03/02 02:32:58;;;;;;;29.27;26.83;;;2.90;84.30;;;;;;5092362;28;20248;-76
2021/03/02 02:35:26;;;;;;;30.02;27.65;;;3.00;83.70;;;;;;5092633;28;20234;-78
2021/03/02 02:37:54;;;;;;;29.67;27.23;;;2.90;84.00;;;;;;5092142;28;20197;-79
2021/03/02 02:40:23;;;;;;;31.00;28.08;;;2.80;86.40;;;;;;5092607;28;20198;-79
2021/03/02 02:42:53;;;;;;;30.90;28.20;;;2.70;87.80;;;;;;5092322;28;20206;-79
2021/03/02 02:45:21;;;;;;;28.67;26.63;;;2.70;86.30;;;;;;5092640;28;20268;-79
2021/03/02 02:47:49;;;;;;;29.08;26.85;;;2.70;87.90;;;;;;5092498;28;20199;-79
2021/03/02 02:50:17;;;;;;;29.63;27.13;;;2.70;88.50;;;;;;5092495;28;20678;-79
2021/03/02 02:52:44;;;;;;;29.98;27.50;;;2.60;87.40;;;;;;5092443;28;20672;-79
2021/03/02 02:55:12;;;;;;;29.35;27.15;;;2.60;86.90;;;;;;5092569;28;20251;-79
2021/03/02 02:57:42;;;;;;;29.88;27.77;;;2.60;86.00;;;;;;5092203;28;20192;-79
2021/03/02 03:00:10;;;;;;;31.23;28.70;;;2.80;85.40;;;;;;5092675;28;20658;-79
2021/03/02 03:02:43;;;;;;;29.65;27.45;;;2.80;84.70;;;;;;5092455;28;20210;-79
2021/03/02 03:05:14;;;;;;;29.45;27.33;;;2.70;84.60;;;;;;5092146;28;20217;-79
2021/03/02 03:07:44;;;;;;;29.60;27.48;;;2.70;84.50;;;;;;5093792;28;20572;-79
2021/03/02 03:10:12;;;;;;;32.10;29.40;;;2.60;87.70;;;;;;5096467;28;20208;-79
2021/03/02 03:12:41;;;;;;;30.75;28.05;;;2.60;86.40;;;;;;5096595;28;20663;-78
2021/03/02 03:15:10;;;;;;;29.90;27.52;;;2.70;85.70;;;;;;5095849;28;20659;-78
2021/03/02 03:17:41;;;;;;;31.95;29.30;;;2.60;85.10;;;;;;5095556;28;20615;-78
2021/03/02 03:20:11;;;;;;;43.78;32.53;;;2.50;85.10;;;;;;5095753;28;20690;-79
2021/03/02 03:22:39;;;;;;;31.35;29.00;;;2.50;85.90;;;;;;5095672;28;20202;-78
2021/03/02 03:25:07;;;;;;;30.42;28.23;;;2.40;86.80;;;;;;5095558;28;20258;-78
2021/03/02 03:27:36;;;;;;;29.38;27.13;;;2.40;86.20;;;;;;5095502;28;20198;-78
2021/03/02 03:30:03;;;;;;;31.25;28.75;;;2.40;86.00;;;;;;5095525;28;20587;-79
2021/03/02 03:32:31;;;;;;;30.42;28.08;;;2.50;85.70;;;;;;5095444;28;20211;-79
2021/03/02 03:35:02;;;;;;;29.55;27.20;;;2.50;85.10;;;;;;5095422;28;20196;-79
2021/03/02 03:37:29;;;;;;;30.60;28.38;;;2.40;85.40;;;;;;5095022;28;20560;-76
2021/03/02 03:39:55;;;;;;;32.38;29.50;;;2.30;85.80;;;;;;5095212;28;20309;-77
2021/03/02 03:42:21;;;;;;;31.50;29.10;;;2.30;86.00;;;;;;5095200;28;20223;-79
2021/03/02 03:44:49;;;;;;;31.05;28.35;;;2.30;86.00;;;;;;5095259;28;20210;-79
2021/03/02 03:47:16;;;;;;;31.27;28.77;;;2.30;85.90;;;;;;5094997;28;20225;-79
2021/03/02 03:49:43;;;;;;;30.70;28.30;;;2.20;85.90;;;;;;5095113;28;20721;-78
2021/03/02 03:52:12;;;;;;;32.95;30.65;;;2.20;85.90;;;;;;5094985;28;20339;-79
2021/03/02 03:54:39;;;;;;;30.50;28.10;;;2.20;86.00;;;;;;5095158;28;20256;-79
2021/03/02 03:57:07;;;;;;;30.33;28.02;;;2.20;86.00;;;;;;5094862;28;20193;-78
2021/03/02 03:59:34;;;;;;;30.23;27.92;;;2.10;86.20;;;;;;5094944;28;20219;-78
2021/03/02 04:02:02;;;;;;;31.27;28.85;;;2.00;86.40;;;;;;5095014;28;20201;-79
2021/03/02 04:04:29;;;;;;;30.85;28.55;;;2.00;86.60;;;;;;5094782;28;20211;-78
2021/03/02 04:06:56;;;;;;;30.23;27.88;;;2.00;86.70;;;;;;5095529;28;20222;-79
2021/03/02 04:09:24;;;;;;;31.30;28.67;;;2.10;86.60;;;;;;5095108;28;20732;-78
2021/03/02 04:11:50;;;;;;;31.88;29.38;;;2.10;86.30;;;;;;5094795;28;20313;-79
2021/03/02 04:14:17;;;;;;;30.60;28.30;;;2.00;86.40;;;;;;5094695;28;20623;-79
2021/03/02 04:16:43;;;;;;;30.95;28.55;;;1.90;86.80;;;;;;5094467;28;20555;-79
2021/03/02 04:19:10;;;;;;;33.58;31.20;;;2.00;86.80;;;;;;5094311;28;20224;-78
2021/03/02 04:21:36;;;;;;;32.20;29.65;;;2.00;86.60;;;;;;5094532;28;20208;-78
2021/03/02 04:24:03;;;;;;;31.75;29.23;;;2.00;86.70;;;;;;5094583;28;20232;-79
2021/03/02 04:26:30;;;;;;;30.05;28.05;;;2.00;86.50;;;;;;5094122;28;20220;-79
2021/03/02 04:28:56;;;;;;;40.97;29.38;;;2.00;86.60;;;;;;5094323;28;20227;-79
2021/03/02 04:31:23;;;;;;;31.38;28.98;;;1.90;87.10;;;;;;5094336;28;20201;-79
2021/03/02 04:33:49;;;;;;;32.25;29.85;;;1.90;90.00;;;;;;5094381;28;20197;-78
2021/03/02 04:36:15;;;;;;;30.67;28.27;;;1.90;88.60;;;;;;5093997;28;20194;-78
2021/03/02 04:38:42;;;;;;;31.00;28.60;;;2.00;88.00;;;;;;5094565;28;20245;-79
2021/03/02 04:41:08;;;;;;;31.27;28.88;;;2.00;87.50;;;;;;5094142;28;20198;-78
2021/03/02 04:43:35;;;;;;;30.35;27.85;;;2.00;86.90;;;;;;5094328;28;20205;-79
2021/03/02 04:46:02;;;;;;;32.10;29.50;;;2.00;87.00;;;;;;5094122;28;20224;-78
2021/03/02 04:48:28;;;;;;;31.30;28.65;;;2.00;86.90;;;;;;5093971;28;20330;-78
2021/03/02 04:50:55;;;;;;;32.53;29.80;;;1.90;87.60;;;;;;5094057;28;20287;-78
2021/03/02 04:53:21;;;;;;;32.38;29.48;;;1.90;87.50;;;;;;5094058;28;20547;-79
2021/03/02 04:55:47;;;;;;;31.83;29.38;;;1.80;87.60;;;;;;5093890;28;20702;-78
2021/03/02 04:58:14;;;;;;;31.25;28.77;;;1.80;87.70;;;;;;5094149;28;20574;-79
2021/03/02 05:00:41;;;;;;;33.10;30.23;;;1.80;87.70;;;;;;5093928;28;20263;-79
2021/03/02 05:03:08;;;;;;;33.08;29.98;;;1.80;88.00;;;;;;5093617;28;20681;-78
2021/03/02 05:05:34;;;;;;;38.83;31.13;;;1.80;87.90;;;;;;5093598;28;20711;-78
2021/03/02 05:08:00;;;;;;;31.73;29.25;;;1.80;89.90;;;;;;5093818;28;20757;-78
2021/03/02 05:10:27;;;;;;;520.53;78.53;;;1.80;92.20;;;;;;5093979;28;20205;-79
2021/03/02 05:12:53;;;;;;;34.38;31.20;;;1.80;90.60;;;;;;5093637;28;20197;-78
2021/03/02 05:15:19;;;;;;;32.75;30.23;;;1.80;90.30;;;;;;5093619;28;20197;-78
2021/03/02 05:17:47;;;;;;;30.98;28.65;;;1.80;89.50;;;;;;5093265;28;20681;-79
2021/03/02 05:20:14;;;;;;;30.00;27.55;;;1.80;89.40;;;;;;5093839;28;20197;-78
2021/03/02 05:22:40;;;;;;;32.88;30.30;;;1.80;88.90;;;;;;5093547;28;20207;-78
2021/03/02 05:25:08;;;;;;;31.98;29.55;;;1.80;88.50;;;;;;5093436;28;20196;-78
2021/03/02 05:27:34;;;;;;;31.17;28.50;;;1.70;88.40;;;;;;5093018;28;20219;-78
2021/03/02 05:30:00;;;;;;;32.53;29.90;;;1.70;88.40;;;;;;5092794;28;20216;-79
2021/03/02 05:32:27;;;;;;;34.28;31.58;;;1.70;88.70;;;;;;5093369;28;20196;-78
2021/03/02 05:34:54;;;;;;;30.80;28.40;;;1.60;88.80;;;;;;5093184;28;20200;-78
2021/03/02 05:37:21;;;;;;;30.83;28.63;;;1.70;89.00;;;;;;5092880;28;20237;-79
2021/03/02 05:39:47;;;;;;;32.00;29.27;;;1.70;89.10;;;;;;5093010;28;20696;-79
2021/03/02 05:42:14;;;;;;;32.22;29.65;;;1.70;88.60;;;;;;5092890;28;20734;-78
2021/03/02 05:44:40;;;;;;;33.50;30.95;;;1.80;88.40;;;;;;5093226;28;20356;-78
2021/03/02 05:47:08;;;;;;;33.35;30.35;;;1.80;88.40;;;;;;5092815;28;20282;-78
2021/03/02 05:49:36;;;;;;;33.45;30.65;;;1.80;88.50;;;;;;5092941;28;20778;-78
2021/03/02 05:52:03;;;;;;;34.35;31.33;;;1.80;88.50;;;;;;5092941;28;20196;-78
2021/03/02 05:54:30;;;;;;;33.67;30.73;;;1.90;88.50;;;;;;5092868;28;20229;-78
2021/03/02 05:56:56;;;;;;;32.17;29.38;;;2.00;88.20;;;;;;5092845;28;20196;-79
2021/03/02 05:59:23;;;;;;;191.68;54.50;;;2.10;88.30;;;;;;5092880;28;20220;-78
2021/03/02 06:01:51;;;;;;;32.50;29.52;;;2.10;89.10;;;;;;5092965;28;20205;-78
2021/03/02 06:04:18;;;;;;;31.95;29.02;;;2.20;89.90;;;;;;5093210;28;20701;-78
2021/03/02 06:06:44;;;;;;;30.70;28.20;;;2.30;89.90;;;;;;5093199;28;20224;-79
2021/03/02 06:09:11;;;;;;;31.08;28.20;;;2.30;89.70;;;;;;5092898;28;20217;-78
2021/03/02 06:11:38;;;;;;;33.40;30.52;;;2.30;89.90;;;;;;5092716;28;20197;-78
2021/03/02 06:14:22;;;;;;;34.20;30.95;;;2.30;90.00;;;;;;5092916;28;20193;-79
2021/03/02 06:16:49;;;;;;;32.45;29.67;;;2.40;90.20;;;;;;5092902;28;20679;-78
2021/03/02 06:19:17;;;;;;;32.42;29.73;;;2.40;89.60;;;;;;5093553;28;20221;-79
2021/03/02 06:21:43;;;;;;;32.88;30.17;;;2.40;89.00;;;;;;5094078;28;20200;-79
2021/03/02 06:24:11;;;;;;;31.80;29.25;;;2.40;88.70;;;;;;5092986;28;20719;-78
2021/03/02 06:26:38;;;;;;;112.07;36.30;;;2.50;88.40;;;;;;5092481;28;20294;-78
2021/03/02 06:29:14;;;;;;;35.90;32.90;;;2.50;89.00;;;;;;5092739;28;20246;-78
2021/03/02 06:31:42;;;;;;;31.27;28.35;;;2.50;90.00;;;;;;5092781;28;20205;-78
2021/03/02 06:34:13;;;;;;;31.52;29.05;;;2.60;89.10;;;;;;5092676;28;20201;-79
2021/03/02 06:36:41;;;;;;;32.17;29.40;;;2.60;90.10;;;;;;5092904;28;20219;-79
2021/03/02 06:39:22;;;;;;;31.65;28.38;;;2.70;89.90;;;;;;5092839;28;20223;-79
2021/03/02 06:41:49;;;;;;;32.58;29.77;;;2.70;89.10;;;;;;5094623;28;20237;-79
2021/03/02 06:44:15;;;;;;;30.15;27.70;;;2.80;88.60;;;;;;5096925;28;20201;-78
2021/03/02 06:46:42;;;;;;;33.53;30.63;;;2.70;87.80;;;;;;5096449;28;20244;-79
2021/03/02 06:49:10;;;;;;;45.05;31.35;;;2.80;87.50;;;;;;5096612;28;20696;-78
2021/03/02 06:51:37;;;;;;;33.38;30.25;;;2.80;86.90;;;;;;5098165;28;20240;-79
2021/03/02 06:54:05;;;;;;;31.40;28.98;;;2.80;86.70;;;;;;5096821;28;20199;-78
2021/03/02 06:56:33;;;;;;;34.20;30.98;;;2.90;86.40;;;;;;5096126;28;20225;-78
2021/03/02 06:59:16;;;;;;;32.80;29.58;;;2.90;90.10;;;;;;5096250;28;20290;-78
2021/03/02 07:01:44;;;;;;;35.05;32.05;;;3.00;90.20;;;;;;5096155;28;20234;-78
2021/03/02 07:04:13;;;;;;;33.53;30.88;;;3.10;89.40;;;;;;5096221;28;20268;-78
2021/03/02 07:06:42;;;;;;;32.97;30.27;;;3.20;88.40;;;;;;5095823;28;20696;-77
2021/03/02 07:09:09;;;;;;;33.13;30.33;;;3.30;88.60;;;;;;5095913;28;20244;-76
2021/03/02 07:11:38;;;;;;;33.38;30.55;;;3.40;88.10;;;;;;5095943;28;20203;-76
2021/03/02 07:14:05;;;;;;;32.40;29.65;;;3.40;87.50;;;;;;5095871;28;20574;-76
2021/03/02 07:16:35;;;;;;;33.25;30.58;;;3.50;87.00;;;;;;5095502;28;20203;-76
2021/03/02 07:19:03;;;;;;;33.42;30.38;;;3.60;87.30;;;;;;5095758;28;20215;-77
2021/03/02 07:21:35;;;;;;;33.55;30.73;;;3.60;85.70;;;;;;5095820;28;20290;-77
2021/03/02 07:24:04;;;;;;;34.17;31.33;;;3.70;85.20;;;;;;5095667;28;20665;-78
2021/03/02 07:26:32;;;;;;;34.40;31.38;;;3.70;84.70;;;;;;5095483;28;20304;-78
2021/03/02 07:29:00;;;;;;;35.47;32.70;;;3.80;84.20;;;;;;5095500;28;20219;-77
2021/03/02 07:31:27;;;;;;;35.45;32.22;;;3.90;83.80;;;;;;5095982;28;20199;-78
2021/03/02 07:33:54;;;;;;;35.40;32.20;;;3.90;83.60;;;;;;5096324;28;20209;-78
2021/03/02 07:36:21;;;;;;;34.80;31.70;;;4.00;83.50;;;;;;5095231;28;20202;-78
2021/03/02 07:39:16;;;;;;;33.67;30.75;;;4.00;83.40;;;;;;5095680;28;20227;-78
2021/03/02 07:41:43;;;;;;;37.65;34.13;;;4.10;83.40;;;;;;5095429;28;20252;-77
2021/03/02 07:44:11;;;;;;;36.75;33.63;;;4.20;83.00;;;;;;5096282;28;20732;-77
2021/03/02 07:46:52;;;;;;;34.95;31.65;;;4.40;82.80;;;;;;5095463;28;20223;-78
2021/03/02 07:49:36;;;;;;;36.45;33.65;;;4.50;82.30;;;;;;5095646;28;20254;-78
2021/03/02 07:52:17;;;;;;;36.30;33.10;;;4.60;82.00;;;;;;5095944;28;20286;-77
2021/03/02 07:54:45;;;;;;;34.28;31.45;;;4.60;81.60;;;;;;5093068;28;20248;-78
2021/03/02 07:57:24;;;;;;;34.90;31.77;;;4.60;81.50;;;;;;5095205;28;20613;-77
2021/03/02 08:00:27;;;;;;;35.80;32.65;;;4.80;81.00;;;;;;5094963;28;20264;-77
2021/03/02 08:03:27;;;;;;;36.67;33.65;;;4.90;80.80;;;;;;5095086;28;20236;-77
2021/03/02 08:05:55;;;;;;;36.80;33.78;;;5.10;80.10;;;;;;5094920;28;20254;-77
2021/03/02 08:08:37;;;;;;;36.78;33.90;;;5.10;79.70;;;;;;5094702;28;20218;-77
2021/03/02 08:11:28;;;;;;;36.08;33.38;;;5.20;79.40;;;;;;5096420;28;20199;-78
2021/03/02 08:13:54;;;;;;;35.25;32.47;;;5.40;79.10;;;;;;5086625;28;20195;-78
2021/03/02 08:16:52;;;;;;;36.53;33.42;;;5.40;78.60;;;;;;5094833;28;20567;-78
2021/03/02 08:19:38;;;;;;;34.13;31.42;;;5.60;78.40;;;;;;5095065;28;20219;-78
2021/03/02 08:22:46;;;;;;;38.20;34.80;;;5.60;78.10;;;;;;5094721;28;20669;-78
2021/03/02 08:25:24;;;;;;;36.22;33.05;;;5.70;77.90;;;;;;5094616;28;20196;-78
2021/03/02 08:27:55;;;;;;;38.42;34.88;;;5.80;77.70;;;;;;5094491;28;20221;-78
2021/03/02 08:30:24;;;;;;;39.10;35.95;;;5.90;77.20;;;;;;5094676;28;20555;-78
2021/03/02 08:32:52;;;;;;;38.85;35.67;;;6.00;76.80;;;;;;5097511;28;20202;-79
2021/03/02 08:35:21;;;;;;;40.67;37.00;;;6.20;76.60;;;;;;5099161;28;20257;-79
2021/03/02 08:37:49;;;;;;;38.70;35.53;;;6.20;76.30;;;;;;5097787;28;20209;-79
2021/03/02 08:40:18;;;;;;;40.15;36.78;;;6.40;75.70;;;;;;5098346;28;20657;-79
2021/03/02 08:43:05;;;;;;;42.58;38.45;;;6.40;75.50;;;;;;5099217;28;20196;-78
2021/03/02 08:45:34;;;;;;;40.08;36.63;;;6.60;75.30;;;;;;5099895;28;20197;-79
2021/03/02 08:48:23;;;;;;;39.80;36.70;;;6.80;74.80;;;;;;5101608;28;20692;-79
2021/03/02 08:50:51;;;;;;;39.53;36.13;;;6.90;74.30;;;;;;5103407;28;20276;-79
2021/03/02 08:53:28;;;;;;;39.33;35.92;;;6.90;74.10;;;;;;5104533;28;20217;-79
2021/03/02 08:55:55;;;;;;;38.63;35.35;;;7.00;74.10;;;;;;5103333;28;20270;-79
2021/03/02 08:58:32;;;;;;;39.80;36.40;;;7.20;73.40;;;;;;5100436;28;20281;-79
2021/03/02 09:01:01;;;;;;;40.42;37.00;;;7.30;73.10;;;;;;5098879;28;20225;-79
2021/03/02 09:03:29;;;;;;;38.80;35.75;;;7.40;72.90;;;;;;5099158;28;20222;-79
2021/03/02 09:06:15;;;;;;;42.40;38.67;;;7.50;72.70;;;;;;5101677;28;20290;-79
2021/03/02 09:08:54;;;;;;;40.50;37.25;;;7.60;72.50;;;;;;5102479;28;20787;-79
2021/03/02 09:11:26;;;;;;;38.05;35.20;;;7.70;72.00;;;;;;5103084;28;20254;-79
2021/03/02 09:13:54;;;;;;;39.08;35.25;;;7.80;71.50;;;;;;5101797;28;20281;-79
2021/03/02 09:16:32;;;;;;;37.72;34.72;;;7.90;71.50;;;;;;5101707;28;20281;-79
2021/03/02 09:19:08;;;;;;;37.58;34.60;;;8.10;71.10;;;;;;5103381;28;20219;-79
2021/03/02 09:21:37;;;;;;;39.05;35.78;;;8.30;70.70;;;;;;5102028;28;20251;-79
2021/03/02 09:24:05;;;;;;;37.38;34.40;;;8.30;70.40;;;;;;5104047;28;20237;-79
2021/03/02 09:26:31;;;;;;;37.67;34.22;;;8.40;70.10;;;;;;5103978;28;20275;-79
2021/03/02 09:29:00;;;;;;;38.17;35.28;;;8.60;69.60;;;;;;5104659;28;20219;-79
2021/03/02 09:31:27;;;;;;;39.70;36.22;;;8.70;69.30;;;;;;5102602;28;20241;-79
2021/03/02 09:33:55;;;;;;;37.88;35.08;;;8.80;69.10;;;;;;5100374;28;20657;-79
2021/03/02 09:36:24;;;;;;;37.00;34.20;;;8.90;68.90;;;;;;5100296;28;20692;-79
2021/03/02 09:38:52;;;;;;;37.72;34.90;;;9.00;68.60;;;;;;5102126;28;20274;-79
2021/03/02 09:41:31;;;;;;;38.17;35.08;;;9.10;68.50;;;;;;5101315;28;20196;-79
2021/03/02 09:43:57;;;;;;;38.63;35.63;;;9.30;68.00;;;;;;5104258;28;20229;-79
2021/03/02 09:46:38;;;;;;;37.17;34.28;;;9.30;67.70;;;;;;5103352;28;20689;-79
2021/03/02 09:49:05;;;;;;;38.10;35.00;;;9.30;67.40;;;;;;5104394;28;20219;-79
2021/03/02 09:51:33;;;;;;;36.50;33.70;;;9.40;67.40;;;;;;5103814;28;20225;-79
2021/03/02 09:54:16;;;;;;;37.88;34.88;;;9.50;66.90;;;;;;5104027;28;20227;-79
2021/03/02 09:56:45;;;;;;;37.03;34.10;;;9.70;66.70;;;;;;5103386;28;20195;-79
2021/03/02 09:59:20;;;;;;;40.53;36.47;;;9.70;66.70;;;;;;5105338;28;20279;-79
2021/03/02 10:01:47;;;;;;;42.37;38.17;;;9.80;66.60;;;;;;5105056;28;20254;-79
2021/03/02 10:04:14;;;;;;;38.47;35.20;;;9.90;66.30;;;;;;5099863;28;20559;-79
2021/03/02 10:06:41;;;;;;;40.05;36.63;;;9.90;66.00;;;;;;5092801;28;20318;-78
2021/03/02 10:09:21;;;;;;;39.47;36.28;;;10.00;65.80;;;;;;5092810;28;20720;-79
2021/03/02 10:12:06;;;;;;;39.05;35.95;;;10.20;65.30;;;;;;5092944;28;20247;-78
2021/03/02 10:14:36;;;;;;;38.87;35.60;;;10.20;65.20;;;;;;5093030;28;20733;-79
2021/03/02 10:17:02;;;;;;;37.63;34.40;;;10.40;64.90;;;;;;5092485;28;20997;-78
2021/03/02 10:19:30;;;;;;;38.93;35.63;;;10.50;64.90;;;;;;5092537;28;20479;-79
2021/03/02 10:21:59;;;;;;;36.70;33.70;;;10.50;64.70;;;;;;5092749;28;20828;-79
2021/03/02 10:24:27;;;;;;;38.00;34.80;;;10.70;64.40;;;;;;5092796;28;21079;-79
2021/03/02 10:26:55;;;;;;;38.47;35.40;;;10.80;63.80;;;;;;5092652;28;20481;-79
2021/03/02 10:29:22;;;;;;;37.20;34.30;;;10.80;63.80;;;;;;5092506;28;21009;-79
2021/03/02 10:31:49;;;;;;;37.97;34.97;;;10.90;63.70;;;;;;5092696;28;20457;-79
2021/03/02 10:34:17;;;;;;;37.50;34.57;;;11.00;63.40;;;;;;5092762;28;20449;-79
2021/03/02 10:36:45;;;;;;;39.70;36.13;;;11.10;63.60;;;;;;5092145;28;20511;-79
2021/03/02 10:39:14;;;;;;;38.47;35.27;;;11.00;63.10;;;;;;5092648;28;20473;-79
2021/03/02 10:41:40;;;;;;;38.90;35.80;;;11.10;62.60;;;;;;5092418;28;20461;-79
2021/03/02 10:44:07;;;;;;;36.70;33.67;;;11.20;62.90;;;;;;5092887;28;20452;-79
2021/03/02 10:46:34;;;;;;;37.87;34.87;;;11.40;62.30;;;;;;5092481;28;20605;-79
2021/03/02 10:49:01;;;;;;;36.80;34.00;;;11.50;62.00;;;;;;5092615;28;20602;-79
2021/03/02 10:51:28;;;;;;;40.83;37.23;;;11.70;61.70;;;;;;5092544;28;20461;-79
2021/03/02 10:53:54;;;;;;;38.90;35.40;;;11.80;62.70;;;;;;5092633;28;20455;-79
2021/03/02 10:56:22;;;;;;;39.70;36.57;;;11.80;62.00;;;;;;5092302;28;20472;-79
2021/03/02 10:58:49;;;;;;;41.97;38.30;;;11.90;61.10;;;;;;5092563;28;20473;-79
2021/03/02 11:01:17;;;;;;;42.20;38.67;;;12.00;60.90;;;;;;5092299;28;20456;-79
2021/03/02 11:03:43;;;;;;;39.50;36.17;;;12.00;60.50;;;;;;5092134;28;20461;-79
2021/03/02 11:06:11;;;;;;;38.80;35.60;;;12.10;60.40;;;;;;5092134;28;21013;-79
2021/03/02 11:08:38;;;;;;;39.90;36.37;;;12.20;60.30;;;;;;5092277;28;20480;-79
2021/03/02 11:11:04;;;;;;;39.53;36.07;;;12.30;60.10;;;;;;5092420;28;20871;-79
2021/03/02 11:13:31;;;;;;;37.80;34.80;;;12.30;59.60;;;;;;5092239;28;20528;-79
2021/03/02 11:15:58;;;;;;;37.73;34.83;;;12.40;59.60;;;;;;5092107;28;21022;-79
2021/03/02 11:18:24;;;;;;;37.60;34.13;;;12.50;58.70;;;;;;5092063;28;20555;-79
2021/03/02 11:20:51;;;;;;;39.00;35.50;;;12.60;58.80;;;;;;5092205;28;20792;-79
2021/03/02 11:23:17;;;;;;;38.57;35.50;;;12.70;58.60;;;;;;5092238;28;20499;-79
2021/03/02 11:25:44;;;;;;;36.30;33.60;;;12.80;58.70;;;;;;5091859;28;20455;-79
2021/03/02 11:28:12;;;;;;;37.90;34.73;;;12.90;57.80;;;;;;5093204;28;20572;-79
2021/03/02 11:30:41;;;;;;;37.43;34.43;;;12.90;57.30;;;;;;5095793;28;20478;-79
2021/03/02 11:33:08;;;;;;;37.23;34.27;;;12.90;57.40;;;;;;5095839;28;20452;-79
2021/03/02 11:35:35;;;;;;;37.27;34.37;;;13.10;57.00;;;;;;5095513;28;20449;-79
2021/03/02 11:38:02;;;;;;;38.43;35.03;;;13.10;56.90;;;;;;5095337;28;20572;-79
2021/03/02 11:40:29;;;;;;;37.03;34.03;;;13.20;57.00;;;;;;5095643;28;20449;-80
2021/03/02 11:42:56;;;;;;;37.13;34.30;;;13.30;56.80;;;;;;5095503;28;20462;-79
2021/03/02 11:45:24;;;;;;;38.80;35.63;;;13.50;55.20;;;;;;5095510;28;20445;-79
2021/03/02 11:47:51;;;;;;;39.30;36.30;;;13.50;55.90;;;;;;5095250;28;20473;-79
2021/03/02 11:50:18;;;;;;;38.43;35.53;;;13.50;56.80;;;;;;5095509;28;20456;-79
2021/03/02 11:52:45;;;;;;;39.70;36.40;;;13.60;55.50;;;;;;5095457;28;20456;-79
2021/03/02 11:55:13;;;;;;;39.17;36.03;;;13.60;55.80;;;;;;5095611;28;20449;-79
2021/03/02 11:57:39;;;;;;;38.37;35.47;;;13.70;55.70;;;;;;5099244;28;20449;-79
2021/03/02 12:00:08;;;;;;;40.03;36.77;;;13.80;55.40;;;;;;5099532;28;20449;-79
2021/03/02 12:02:35;;;;;;;40.13;36.73;;;13.90;55.00;;;;;;5095160;28;20529;-79
2021/03/02 12:05:02;;;;;;;39.90;36.20;;;13.90;55.20;;;;;;5095051;28;20453;-79
2021/03/02 12:07:29;;;;;;;37.87;34.87;;;14.00;53.90;;;;;;5094943;28;20473;-79
2021/03/02 12:09:55;;;;;;;39.37;36.23;;;13.90;54.00;;;;;;5095245;28;20469;-79
2021/03/02 12:12:22;;;;;;;38.30;35.20;;;13.80;54.50;;;;;;5095002;28;20460;-79
2021/03/02 12:14:48;;;;;;;38.37;35.27;;;13.80;54.20;;;;;;5094996;28;20943;-79
2021/03/02 12:17:15;;;;;;;39.27;35.87;;;14.00;53.50;;;;;;5094941;28;20457;-79
2021/03/02 12:19:42;;;;;;;40.03;36.83;;;14.10;52.20;;;;;;5094996;28;20566;-79
2021/03/02 12:22:09;;;;;;;39.50;36.37;;;14.30;52.50;;;;;;5094699;28;20535;-79
2021/03/02 12:24:35;;;;;;;39.37;36.00;;;14.30;52.80;;;;;;5094726;28;20453;-79
2021/03/02 12:27:02;;;;;;;39.07;35.67;;;14.30;52.70;;;;;;5094264;28;20468;-79
2021/03/02 12:29:28;;;;;;;38.87;35.73;;;14.40;52.30;;;;;;5094652;28;20483;-79
2021/03/02 12:31:55;;;;;;;41.00;37.43;;;14.40;51.90;;;;;;5094701;28;20452;-79
2021/03/02 12:34:21;;;;;;;38.40;35.40;;;14.50;51.60;;;;;;5094691;28;20594;-79
2021/03/02 12:36:47;;;;;;;38.83;35.63;;;14.50;51.80;;;;;;5095913;28;20494;-79
2021/03/02 12:39:15;;;;;;;39.27;35.90;;;14.50;51.60;;;;;;5098725;28;20485;-79
2021/03/02 12:41:41;;;;;;;37.67;34.83;;;14.60;51.30;;;;;;5096053;28;20834;-79
2021/03/02 12:44:07;;;;;;;38.33;35.43;;;14.70;50.70;;;;;;5094559;28;20459;-79
2021/03/02 12:46:34;;;;;;;39.40;35.87;;;14.80;50.40;;;;;;5094054;28;20477;-79